Hauptseite
METAR-TAF:

METAR-TAF

Flughäfen :

Flughafen Chuuk

Weno, Mikronesien

Breite: 07-28N, Länge: 151-51E, Höhe: 3 m

Beobachtung

Neuester Wetterbericht von vor 18 Minuten, um 00:50 UTC
Wind 5 kt aus unterschiedlichen Richtungen
Temperatur 31°C
Luftfeuchtigkeit 89%
Luftdruck 1010 hPa
Sichtweite: 24.1 km
Leicht bewölkt in der Höhe von 1400 ft
Durchbrochene Bewölkung in der Höhe von 28000 ft

METAR: PTKK 190050Z VRB05KT 15SM FEW014 BKN280 31/29 A2982 RMK SLP101 T03110288

Zeit: 11:08 (01:08 UTC)

Prognose

Neuester Wetterbericht von vor 1 Stunde und 36 Minuten, um 23:32 UTC
Gültige Prognose vom 19 um 00 UTC bis 19 um 24 UTC
Wind 7 kt aus unterschiedlichen Richtungen
Sichtweite: 10 km
Leicht bewölkt in der Höhe von 1400 ft
Aufgelockert bewölkt in der Höhe von 3000 ft
Aufgelockert bewölkt in der Höhe von 12000 ft
Schauer in der Nähe

TAF: PTKK 182332Z 1900/1924 VRB07KT P6SM VCSH FEW014 SCT030 SCT120

Wetterbeobachtungen und Prognosen von mehr als 4000 Flughäfen (METAR und TAF Bericht).

Die verfügbaren Stationen werden durch gelbe und rote Markierungen auf der Karte dargestellt.

Führen Sie die Maus auf sie, um den Namen der Station zu sehen.

Darauf klicken, um die Beobachtung von Wetterbeobachtungen und Prognosen zu sehen.

Um die Karte zu ändern : klicken Sie auf den grünen Tasten mit einem schwarzen Kreuz Zum Vergrößern, auf den grünen Button mit einem Gedankenstrich zu verkleinern, oder auf die grünen Pfeile für benachbarte Karten.


METAR-TAF: